createdAt,value
2023-01-23T00:09:10.156Z,103642.84
2023-01-23T00:11:38.480Z,103638.50
2023-01-23T00:14:06.663Z,103641.46
2023-01-23T00:16:34.852Z,103645.30
2023-01-23T00:19:03.085Z,103651.21
2023-01-23T00:21:31.556Z,103650.92
2023-01-23T00:24:01.802Z,103646.69
2023-01-23T00:26:33.014Z,103651.98
2023-01-23T00:29:02.141Z,103651.27
2023-01-23T00:31:35.275Z,103650.30
2023-01-23T00:34:07.202Z,103651.23
2023-01-23T00:36:37.922Z,103648.70
2023-01-23T00:39:08.616Z,103639.86
2023-01-23T00:41:36.904Z,103640.04
2023-01-23T00:44:05.643Z,103645.48
2023-01-23T00:46:35.082Z,103645.78
2023-01-23T00:49:03.666Z,103644.95
2023-01-23T00:51:32.405Z,103640.93
2023-01-23T00:54:01.216Z,103648.96
2023-01-23T00:56:29.597Z,103649.59
2023-01-23T01:10:13.666Z,103657.06
2023-01-23T01:12:42.407Z,103656.39
2023-01-23T01:15:11.499Z,103655.54
2023-01-23T01:17:40.543Z,103659.38
2023-01-23T01:20:09.446Z,103641.66
2023-01-23T01:22:38.013Z,103656.80
2023-01-23T01:25:06.864Z,103652.84
2023-01-23T01:27:35.961Z,103650.56
2023-01-23T01:30:05.218Z,103658.59
2023-01-23T01:32:37.949Z,103658.80
2023-01-23T01:35:07.259Z,103663.23
2023-01-23T01:37:41.180Z,103664.30
2023-01-23T01:40:14.978Z,103664.61
2023-01-23T01:42:45.343Z,103642.04
2023-01-23T01:45:50.944Z,103662.39
2023-01-23T01:48:21.915Z,103626.45
2023-01-23T01:50:51.649Z,103669.63
2023-01-23T01:53:22.805Z,103668.60
2023-01-23T01:55:52.320Z,103676.06
2023-01-23T01:58:21.018Z,103678.52
2023-01-23T02:00:49.417Z,103681.80
2023-01-23T02:03:19.685Z,103685.54
2023-01-23T02:05:50.365Z,103689.33
2023-01-23T02:08:50.889Z,103690.48
2023-01-23T02:11:19.490Z,103684.17
2023-01-23T02:13:47.866Z,103696.81
2023-01-23T02:16:20.004Z,103694.01
2023-01-23T02:18:54.054Z,103693.42
2023-01-23T02:21:25.469Z,103697.87
2023-01-23T02:24:17.275Z,103694.79
2023-01-23T02:26:46.813Z,103698.84
2023-01-23T02:29:16.284Z,103696.63
2023-01-23T02:31:56.458Z,103697.11
2023-01-23T02:34:26.236Z,103692.77
2023-01-23T02:36:57.703Z,103691.91
2023-01-23T02:39:26.073Z,103697.11
2023-01-23T02:41:56.323Z,103689.12
2023-01-23T02:44:32.078Z,103689.48
2023-01-23T02:47:08.828Z,103693.04
2023-01-23T02:49:37.584Z,103699.18
2023-01-23T02:52:07.367Z,103704.64
2023-01-23T02:54:37.141Z,103705.39
2023-01-23T02:57:05.614Z,103707.73
2023-01-23T02:59:52.445Z,103708.09
2023-01-23T03:02:21.363Z,103707.58
2023-01-23T03:04:49.974Z,103702.77
2023-01-23T03:07:20.466Z,103701.36
2023-01-23T03:09:48.983Z,103704.00
2023-01-23T03:12:17.467Z,103707.48
2023-01-23T03:14:45.875Z,103714.96
2023-01-23T03:17:16.122Z,103714.42
2023-01-23T03:19:44.562Z,103714.27
2023-01-23T03:22:13.235Z,103718.61
2023-01-23T03:24:41.400Z,103720.70
2023-01-23T03:27:09.872Z,103719.40
2023-01-23T03:30:01.226Z,103722.02
2023-01-23T03:32:30.989Z,103720.60
2023-01-23T03:34:59.595Z,103725.13
2023-01-23T03:37:27.872Z,103727.06
2023-01-23T03:40:14.824Z,103725.70
2023-01-23T03:42:43.272Z,103726.56
2023-01-23T03:45:13.229Z,103729.86
2023-01-23T03:47:42.923Z,103726.77
2023-01-23T03:50:11.059Z,103719.61
2023-01-23T03:52:40.300Z,103727.98
2023-01-23T03:55:09.282Z,103726.48
2023-01-23T03:57:37.848Z,103721.86
2023-01-23T04:00:13.890Z,103720.64
2023-01-23T04:02:42.116Z,103719.52
2023-01-23T04:05:12.374Z,103722.42
2023-01-23T04:07:40.637Z,103722.38
2023-01-23T04:10:13.012Z,103726.92
2023-01-23T04:12:44.621Z,103729.02
2023-01-23T04:15:13.020Z,103731.54
2023-01-23T04:17:42.447Z,103740.27
2023-01-23T04:20:12.563Z,103741.84
2023-01-23T04:22:42.258Z,103737.48
2023-01-23T04:25:10.863Z,103740.27
2023-01-23T04:27:39.100Z,103744.82
2023-01-23T04:30:08.387Z,103745.15
2023-01-23T04:32:36.731Z,103747.31
2023-01-23T04:35:05.445Z,103747.11
2023-01-23T04:37:33.939Z,103748.73
2023-01-23T04:40:02.960Z,103753.61
2023-01-23T04:42:33.138Z,103754.60
2023-01-23T04:45:11.086Z,103757.82
2023-01-23T04:47:39.267Z,103756.42
2023-01-23T04:50:11.348Z,103754.65
2023-01-23T04:52:39.765Z,103753.56
2023-01-23T04:55:08.465Z,103756.84
2023-01-23T04:57:37.537Z,103762.25
2023-01-23T05:00:15.189Z,103764.78
2023-01-23T05:02:46.757Z,103768.51
2023-01-23T05:05:17.411Z,103771.48
2023-01-23T05:07:45.663Z,103776.38
2023-01-23T05:10:17.211Z,103774.13
2023-01-23T05:12:45.576Z,103775.34
2023-01-23T05:15:14.439Z,103775.52
2023-01-23T05:17:43.515Z,103778.45
2023-01-23T05:20:12.595Z,103772.55
2023-01-23T05:22:52.693Z,103776.78
2023-01-23T05:25:25.704Z,103777.48
2023-01-23T05:27:56.200Z,103778.20
2023-01-23T05:30:24.947Z,103767.08
2023-01-23T05:32:56.540Z,103779.55
2023-01-23T05:35:24.819Z,103782.20
2023-01-23T05:37:54.212Z,103785.88
2023-01-23T05:40:26.964Z,103791.45
2023-01-23T05:43:15.996Z,103794.60
2023-01-23T05:46:03.341Z,103797.39
2023-01-23T05:48:38.909Z,103798.13
2023-01-23T05:51:09.933Z,103797.86
2023-01-23T05:53:38.325Z,103799.73
2023-01-23T05:56:09.455Z,103799.90
2023-01-23T05:58:44.806Z,103800.36
2023-01-23T06:01:19.542Z,103801.94
2023-01-23T06:04:07.831Z,103794.27
2023-01-23T06:06:53.315Z,103797.42
2023-01-23T06:09:21.560Z,103802.48
2023-01-23T06:11:49.731Z,103803.86
2023-01-23T06:14:17.992Z,103808.57
2023-01-23T06:16:46.798Z,103806.52
2023-01-23T06:19:15.097Z,103813.29
2023-01-23T06:21:43.252Z,103816.08
2023-01-23T06:24:11.565Z,103822.44
2023-01-23T06:26:40.310Z,103822.24
2023-01-23T06:29:08.860Z,103830.44
2023-01-23T06:31:37.509Z,103828.41
2023-01-23T06:34:07.122Z,103836.51
2023-01-23T06:36:40.961Z,103839.95
2023-01-23T06:39:13.370Z,103846.39
2023-01-23T06:41:43.724Z,103849.69
2023-01-23T06:44:13.344Z,103853.30
2023-01-23T06:46:41.656Z,103859.55
2023-01-23T06:49:10.659Z,103860.41
2023-01-23T06:51:38.888Z,103862.98
2023-01-23T06:54:09.055Z,103861.15
2023-01-23T06:56:37.302Z,103859.73
2023-01-23T06:59:07.133Z,103860.50
2023-01-23T07:01:35.761Z,103862.59
2023-01-23T07:04:09.252Z,103863.66
2023-01-23T07:06:38.884Z,103852.70
2023-01-23T07:09:07.479Z,103867.33
2023-01-23T07:11:37.572Z,103872.73
2023-01-23T07:14:07.302Z,103870.98
2023-01-23T07:16:36.481Z,103873.61
2023-01-23T07:19:05.769Z,103871.33
2023-01-23T07:21:35.502Z,103875.80
2023-01-23T07:24:04.124Z,103876.16
2023-01-23T07:26:32.239Z,103881.70
2023-01-23T07:29:00.385Z,103886.55
2023-01-23T07:31:28.545Z,103885.98
2023-01-23T07:33:56.879Z,103888.54
2023-01-23T07:36:25.041Z,103888.46
2023-01-23T07:38:53.221Z,103887.36
2023-01-23T07:41:21.455Z,103894.29
2023-01-23T07:43:49.788Z,103890.05
2023-01-23T07:46:18.115Z,103875.54
2023-01-23T07:48:46.391Z,103888.13
2023-01-23T07:51:15.602Z,103891.96
2023-01-23T07:53:43.909Z,103895.52
2023-01-23T07:56:13.593Z,103895.52
2023-01-23T07:58:41.730Z,103899.10
2023-01-23T08:01:17.689Z,103898.69
2023-01-23T08:03:47.235Z,103892.88
2023-01-23T08:06:16.529Z,103901.09
2023-01-23T08:08:48.355Z,103905.39
2023-01-23T08:11:17.200Z,103907.77
2023-01-23T08:13:49.337Z,103911.08
2023-01-23T08:16:18.135Z,103909.79
2023-01-23T08:18:46.575Z,103907.89
2023-01-23T08:21:15.202Z,103874.08
2023-01-23T08:23:43.608Z,103896.80
2023-01-23T08:26:14.643Z,103894.30
2023-01-23T08:28:44.628Z,103897.89
2023-01-23T08:31:14.183Z,103901.63
2023-01-23T08:33:42.829Z,103912.03
2023-01-23T08:36:14.340Z,103914.32
2023-01-23T08:38:42.897Z,103907.73
2023-01-23T08:41:12.423Z,103902.64
2023-01-23T08:43:44.472Z,103904.57
2023-01-23T08:46:13.119Z,103907.80
2023-01-23T08:48:41.925Z,103903.63
2023-01-23T08:51:14.560Z,103921.64
2023-01-23T08:53:42.890Z,103916.00
2023-01-23T08:56:17.018Z,103921.02
2023-01-23T08:58:46.105Z,103918.63
2023-01-23T09:01:16.641Z,103904.88
2023-01-23T09:03:45.335Z,103918.73
2023-01-23T09:06:15.840Z,103905.09
2023-01-23T09:08:44.643Z,103911.10
2023-01-23T09:11:13.771Z,103922.84
2023-01-23T09:13:42.605Z,103906.09
2023-01-23T09:16:11.252Z,103921.02
2023-01-23T09:18:39.624Z,103923.45
2023-01-23T09:21:13.341Z,103921.41
2023-01-23T09:23:42.217Z,103924.51
2023-01-23T09:26:12.803Z,103925.84
2023-01-23T09:28:43.001Z,103931.73
2023-01-23T09:31:13.980Z,103935.41
2023-01-23T09:33:43.057Z,103930.77
2023-01-23T09:36:12.422Z,103928.69
2023-01-23T09:38:40.962Z,103925.80
2023-01-23T09:41:16.616Z,103922.78
2023-01-23T09:43:53.994Z,103921.51
2023-01-23T09:46:33.022Z,103923.40
2023-01-23T09:49:19.923Z,103922.43
2023-01-23T09:51:56.774Z,103918.55
2023-01-23T09:54:48.532Z,103922.59
2023-01-23T09:57:22.283Z,103924.13
2023-01-23T10:00:00.599Z,103921.67
2023-01-23T10:02:30.380Z,103921.00
2023-01-23T10:05:01.822Z,103924.83
2023-01-23T10:07:42.684Z,103927.35
2023-01-23T10:10:13.924Z,103912.66
2023-01-23T10:12:45.404Z,103937.23
2023-01-23T10:15:22.485Z,103936.54
2023-01-23T10:17:59.003Z,103937.44
2023-01-23T10:20:30.548Z,103941.35
2023-01-23T10:23:17.507Z,103936.61
2023-01-23T10:25:46.146Z,103934.45
2023-01-23T10:28:20.403Z,103937.45
2023-01-23T10:30:52.048Z,103935.48
2023-01-23T10:33:20.222Z,103930.19
2023-01-23T10:35:53.659Z,103931.39
2023-01-23T10:38:43.663Z,103928.58
2023-01-23T10:41:17.938Z,103925.08
2023-01-23T10:43:53.645Z,103911.93
2023-01-23T10:46:24.451Z,103912.02
2023-01-23T10:48:53.417Z,103918.71
2023-01-23T10:51:26.003Z,103921.71
2023-01-23T10:54:11.452Z,103916.92
2023-01-23T10:56:53.405Z,103910.63
2023-01-23T10:59:24.137Z,103913.60
2023-01-23T11:01:57.872Z,103910.91
2023-01-23T11:04:27.678Z,103912.92
2023-01-23T11:07:03.574Z,103908.85
2023-01-23T11:09:32.057Z,103912.48
2023-01-23T11:12:01.509Z,103911.17
2023-01-23T11:14:30.332Z,103907.11
2023-01-23T11:17:03.224Z,103901.88
2023-01-23T11:19:33.319Z,103898.77
2023-01-23T11:22:03.718Z,103905.59
2023-01-23T11:24:40.743Z,103908.20
2023-01-23T11:27:18.755Z,103900.84
2023-01-23T11:30:05.515Z,103900.71
2023-01-23T11:32:35.628Z,103904.46
2023-01-23T11:35:11.310Z,103907.23
2023-01-23T11:37:40.707Z,103912.09
2023-01-23T11:40:19.031Z,103901.56
2023-01-23T11:42:47.604Z,103917.02
2023-01-23T11:45:18.816Z,103919.48
2023-01-23T11:47:59.275Z,103917.35
2023-01-23T11:50:30.572Z,103922.73
2023-01-23T11:53:28.037Z,103924.23
2023-01-23T11:56:18.159Z,103917.09
2023-01-23T11:59:01.212Z,103921.08
2023-01-23T12:01:29.391Z,103917.41
2023-01-23T12:04:03.715Z,103915.13
2023-01-23T12:06:40.212Z,103916.91
2023-01-23T12:09:12.924Z,103918.35
2023-01-23T12:12:03.134Z,103915.96
2023-01-23T12:14:37.806Z,103914.42
2023-01-23T12:17:12.512Z,103919.12
2023-01-23T12:19:51.403Z,103922.04
2023-01-23T12:22:32.011Z,103906.88
2023-01-23T12:25:00.152Z,103918.55
2023-01-23T12:27:40.876Z,103920.09
2023-01-23T12:30:12.120Z,103920.26
2023-01-23T12:32:40.395Z,103919.85
2023-01-23T12:35:11.718Z,103920.83
2023-01-23T12:37:43.417Z,103925.17
2023-01-23T12:40:30.435Z,103922.00
2023-01-23T12:43:04.736Z,103918.31
2023-01-23T12:45:33.398Z,103917.70
2023-01-23T12:48:04.470Z,103914.95
2023-01-23T12:50:35.773Z,103920.30
2023-01-23T12:53:07.440Z,103926.19
2023-01-23T12:55:36.055Z,103927.19
2023-01-23T12:58:09.300Z,103913.80
2023-01-23T13:01:10.229Z,103913.08
2023-01-23T13:03:51.648Z,103931.19
2023-01-23T13:06:40.521Z,103930.73
2023-01-23T13:09:23.032Z,103933.59
2023-01-23T13:11:54.044Z,103932.84
2023-01-23T13:15:06.963Z,103933.63
2023-01-23T13:17:38.178Z,103936.50
2023-01-23T13:20:43.958Z,103938.77
2023-01-23T13:23:23.979Z,103939.73
2023-01-23T13:26:10.948Z,103936.71
2023-01-23T13:28:48.248Z,103940.71
2023-01-23T13:31:25.625Z,103947.13
2023-01-23T13:34:00.885Z,103952.05
2023-01-23T13:36:33.578Z,103953.76
2023-01-23T13:39:17.133Z,103946.24
2023-01-23T13:41:46.764Z,103943.68
2023-01-23T13:44:41.017Z,103939.63
2023-01-23T14:22:04.153Z,103928.78
2023-01-23T14:24:47.205Z,103893.01
2023-01-23T14:27:29.594Z,103938.24
2023-01-23T14:29:59.982Z,103935.02
2023-01-23T14:32:30.238Z,103942.84
2023-01-23T14:34:58.463Z,103940.75
2023-01-23T14:37:27.432Z,103940.23
2023-01-23T14:39:59.844Z,103935.69
2023-01-23T14:42:30.264Z,103937.41
2023-01-23T14:45:01.474Z,103941.83
2023-01-23T14:47:34.629Z,103943.19
2023-01-23T14:50:04.149Z,103945.48
2023-01-23T14:52:32.386Z,103943.48
2023-01-23T14:55:07.733Z,103946.54
2023-01-23T14:57:36.728Z,103949.11
2023-01-23T15:00:05.279Z,103952.36
2023-01-23T15:02:34.605Z,103954.80
2023-01-23T15:05:12.060Z,103953.23
2023-01-23T15:07:49.436Z,103953.70
2023-01-23T15:10:20.082Z,103955.95
2023-01-23T15:12:53.099Z,103956.81
2023-01-23T15:15:22.701Z,103952.88
2023-01-23T15:17:51.633Z,103954.14
2023-01-23T15:20:41.358Z,103949.65
2023-01-23T15:23:31.349Z,103934.52
2023-01-23T15:26:15.331Z,103950.13
2023-01-23T15:28:54.125Z,103954.23
2023-01-23T15:31:27.616Z,103954.23
2023-01-23T15:33:57.070Z,103952.69
2023-01-23T15:36:30.524Z,103961.05
2023-01-23T15:39:01.049Z,103955.69
2023-01-23T15:41:39.856Z,103956.53
2023-01-23T15:44:12.820Z,103961.51
2023-01-23T15:46:41.295Z,103964.36
2023-01-23T15:49:23.603Z,103962.59
2023-01-23T15:51:57.734Z,103960.65
2023-01-23T15:54:28.737Z,103959.67
2023-01-23T15:57:07.181Z,103958.48
2023-01-23T15:59:37.265Z,103958.73
2023-01-23T16:02:08.264Z,103968.71
2023-01-23T16:04:39.321Z,103956.17
2023-01-23T16:07:08.238Z,103971.66
2023-01-23T16:09:38.250Z,103970.81
2023-01-23T16:12:14.324Z,103969.53
2023-01-23T16:14:42.575Z,103970.67
2023-01-23T16:17:16.685Z,103968.17
2023-01-23T16:19:45.510Z,103971.20
2023-01-23T16:22:15.362Z,103963.98
2023-01-23T16:24:44.141Z,103924.05
2023-01-23T16:27:19.068Z,103977.14
2023-01-23T16:29:49.683Z,103974.88
2023-01-23T16:32:18.166Z,103975.00
2023-01-23T16:34:46.517Z,103973.20
2023-01-23T16:37:16.042Z,103978.02
2023-01-23T16:39:44.996Z,103959.70
2023-01-23T16:42:18.773Z,103972.98
2023-01-23T16:44:46.964Z,103974.31
2023-01-23T16:47:15.196Z,103971.49
2023-01-23T16:49:51.891Z,103973.78
2023-01-23T16:52:24.359Z,103970.64
2023-01-23T16:54:54.417Z,103968.25
2023-01-23T16:57:23.137Z,103965.89
2023-01-23T16:59:51.626Z,103969.27
2023-01-23T17:02:21.544Z,103972.42
2023-01-23T17:04:50.184Z,103976.22
2023-01-23T17:07:19.570Z,103976.37
2023-01-23T17:09:49.397Z,103972.83
2023-01-23T17:12:22.593Z,103975.59
2023-01-23T17:14:52.804Z,103980.63
2023-01-23T17:17:32.971Z,103948.64
2023-01-23T17:20:02.032Z,103984.16
2023-01-23T17:22:33.912Z,103987.00
2023-01-23T17:25:02.069Z,103986.18
2023-01-23T17:27:36.277Z,103979.30
2023-01-23T17:30:14.459Z,103952.06
2023-01-23T17:32:43.238Z,103986.52
2023-01-23T17:35:18.953Z,103986.06
2023-01-23T17:37:50.486Z,103987.88
2023-01-23T17:40:19.382Z,103991.56
2023-01-23T17:42:47.518Z,103989.30
2023-01-23T17:45:17.193Z,103993.73
2023-01-23T17:47:49.943Z,103997.78
2023-01-23T17:50:19.701Z,104005.64
2023-01-23T17:52:48.693Z,104004.17
2023-01-23T17:55:20.167Z,104005.42
2023-01-23T17:57:48.721Z,104005.87
2023-01-23T18:00:18.858Z,104005.31
2023-01-23T18:02:50.436Z,103999.24
2023-01-23T18:05:18.796Z,104009.02
2023-01-23T18:07:53.731Z,103996.98
2023-01-23T18:10:22.650Z,104014.02
2023-01-23T18:13:17.354Z,104013.91
2023-01-23T18:15:48.901Z,104014.83
2023-01-23T18:18:23.050Z,104013.92
2023-01-23T18:20:54.817Z,104013.83
2023-01-23T18:23:23.547Z,104011.52
2023-01-23T18:25:56.387Z,103985.29
2023-01-23T18:28:25.273Z,104010.20
2023-01-23T18:31:19.663Z,103970.64
2023-01-23T18:33:48.100Z,104010.89
2023-01-23T18:36:26.422Z,104017.25
2023-01-23T18:39:03.845Z,104021.66
2023-01-23T18:41:32.078Z,104022.20
2023-01-23T18:44:21.753Z,104019.60
2023-01-23T18:46:50.253Z,104016.38
2023-01-23T18:49:32.045Z,104018.54
2023-01-23T18:52:09.813Z,104024.14
2023-01-23T18:54:42.141Z,104002.78
2023-01-23T18:57:23.141Z,104019.97
2023-01-23T19:00:24.873Z,104020.44
2023-01-23T19:02:56.428Z,104020.63
2023-01-23T19:05:32.047Z,104023.42
2023-01-23T19:08:01.094Z,104024.92
2023-01-23T19:10:40.188Z,104024.41
2023-01-23T19:13:32.634Z,104019.16
2023-01-23T19:16:01.331Z,104016.14
2023-01-23T19:18:40.056Z,104011.23
2023-01-23T19:21:11.414Z,104015.91
2023-01-23T19:23:44.379Z,104015.73
2023-01-23T19:26:16.527Z,104010.89
2023-01-23T19:28:44.999Z,104007.58
2023-01-23T19:31:24.021Z,104007.38
2023-01-23T19:33:52.656Z,104010.84
2023-01-23T19:36:21.958Z,104016.71
2023-01-23T19:38:51.215Z,104012.91
2023-01-23T19:44:29.077Z,104014.85
2023-01-23T19:46:57.606Z,103993.42
2023-01-23T19:49:26.280Z,104021.48
2023-01-23T19:51:54.813Z,104022.62
2023-01-23T19:54:24.374Z,104024.66
2023-01-23T19:56:53.125Z,104025.27
2023-01-23T19:59:21.775Z,104026.70
2023-01-23T20:01:52.569Z,104028.10
2023-01-23T20:04:23.149Z,104025.30
2023-01-23T20:06:54.252Z,104024.44
2023-01-23T20:09:22.858Z,104024.84
2023-01-23T20:11:52.453Z,104024.27
2023-01-23T20:14:22.298Z,104024.25
2023-01-23T20:16:50.911Z,104024.75
2023-01-23T20:19:19.629Z,104026.80
2023-01-23T20:21:48.735Z,104030.67
2023-01-23T20:24:17.185Z,104035.81
2023-01-23T20:26:47.131Z,104038.95
2023-01-23T20:29:15.511Z,104037.22
2023-01-23T20:31:43.984Z,104038.13
2023-01-23T20:34:12.660Z,104040.60
2023-01-23T20:36:40.999Z,104044.06
2023-01-23T20:39:12.494Z,104045.08
2023-01-23T20:41:40.983Z,104044.86
2023-01-23T20:44:09.358Z,104044.58
2023-01-23T20:46:37.689Z,104008.54
2023-01-23T20:49:06.099Z,104049.92
2023-01-23T20:51:34.422Z,104048.49
2023-01-23T20:54:02.685Z,104048.70
2023-01-23T20:56:31.085Z,104047.33
2023-01-23T20:59:18.110Z,104043.16
2023-01-23T21:02:05.204Z,104020.02
2023-01-23T21:04:36.466Z,104047.11
2023-01-23T21:07:05.194Z,104032.17
2023-01-23T21:09:33.596Z,104035.88
2023-01-23T21:12:01.948Z,104040.84
2023-01-23T21:14:30.305Z,104029.84
2023-01-23T21:16:59.023Z,104030.96
2023-01-23T21:19:27.707Z,104022.55
2023-01-23T21:21:56.338Z,104031.42
2023-01-23T21:24:25.447Z,104033.96
2023-01-23T21:26:54.321Z,104031.39
2023-01-23T21:29:22.619Z,104033.52
2023-01-23T21:31:51.701Z,104034.04
2023-01-23T21:34:20.140Z,104038.65
2023-01-23T21:36:48.724Z,104034.73
2023-01-23T21:39:17.415Z,104031.31
2023-01-23T21:41:45.977Z,104032.03
2023-01-23T21:44:15.065Z,104030.45
2023-01-23T21:46:43.699Z,104030.17
2023-01-23T21:49:12.093Z,104029.30
2023-01-23T21:51:40.515Z,104035.77
2023-01-23T21:54:09.379Z,104039.14
2023-01-23T21:56:37.875Z,104038.55
2023-01-23T21:59:06.195Z,104035.72
2023-01-23T22:01:42.328Z,104034.09
2023-01-23T22:04:13.935Z,104035.14
2023-01-23T22:06:44.362Z,104036.30
2023-01-23T22:09:17.234Z,104031.98
2023-01-23T22:11:46.921Z,104023.08
2023-01-23T22:14:16.817Z,104024.04
2023-01-23T22:16:50.012Z,104025.16
2023-01-23T22:19:25.000Z,104027.70
2023-01-23T22:21:55.439Z,104023.00
2023-01-23T22:24:24.186Z,104034.77
2023-01-23T22:26:52.861Z,104032.33
2023-01-23T22:29:23.073Z,104027.13
2023-01-23T22:31:52.370Z,104026.45
2023-01-23T22:34:20.860Z,104023.56
2023-01-23T22:36:49.151Z,104022.58
2023-01-23T22:39:18.059Z,104023.80
2023-01-23T22:41:47.667Z,104027.46
2023-01-23T22:44:16.549Z,104028.60
2023-01-23T22:46:45.472Z,104036.13
2023-01-23T22:49:13.796Z,104038.68
2023-01-23T22:51:42.156Z,104039.33
2023-01-23T22:54:10.580Z,104039.86
2023-01-23T22:56:39.023Z,104042.65
2023-01-23T22:59:07.447Z,104040.62
2023-01-23T23:01:35.922Z,104038.64
2023-01-23T23:04:04.432Z,104010.16
2023-01-23T23:06:32.815Z,103998.52
2023-01-23T23:09:01.389Z,104031.58
2023-01-23T23:11:29.895Z,104034.95
2023-01-23T23:13:58.429Z,104041.96
2023-01-23T23:16:31.081Z,104043.04
2023-01-23T23:19:02.331Z,104044.48
2023-01-23T23:21:36.311Z,104039.14
2023-01-23T23:24:07.308Z,104037.53
2023-01-23T23:26:36.287Z,104032.66
2023-01-23T23:29:05.800Z,104036.44
2023-01-23T23:31:34.652Z,104038.60
2023-01-23T23:34:02.905Z,104049.88
2023-01-23T23:36:31.295Z,104049.43
2023-01-23T23:38:59.674Z,104037.58
2023-01-23T23:41:28.155Z,104044.80
2023-01-23T23:43:56.467Z,104041.77
2023-01-23T23:46:24.829Z,104041.36
2023-01-23T23:48:53.105Z,104042.65
2023-01-23T23:51:23.014Z,104035.54
2023-01-23T23:53:51.212Z,104032.92
2023-01-23T23:56:25.747Z,104032.23
2023-01-23T23:58:54.732Z,104033.98
